Aberdeen, Arkansas
Current Conditions -  °F | °C
As of 7:55 AM on Saturday 01 Nov 2014 (Local Time) from KSGT Reporting Station
Clear Clear  
Wind Chill: 26°   Ceiling: Unl
Heat Index: 32°   Visibility: 10mi
Dew Point: 25°   Wind: 7mph
Humidity: 75%   Direction: 350°N
Pressure: 30.44"   Gusts: NA
Location:  34.6163°N, 91.3754°W
Report Text: KSGT 011255Z AUTO 35006KT 10SM CLR 00/M04 A3044 RMK AO1
Loading
Personal Weather Stations






























Interactive Weather Map
Tropical Storm Tracking
New forecast layout! Learn more

10-Day Weather Forecast

Advertisements
Track Severe Weather on mobile